createdAt,value
2022-10-08T00:01:30.281Z,101689.69
2022-10-08T00:04:00.423Z,101692.19
2022-10-08T00:06:30.823Z,101688.72
2022-10-08T00:09:00.672Z,101693.16
2022-10-08T00:11:30.986Z,101695.81
2022-10-08T00:13:59.475Z,101687.22
2022-10-08T00:16:30.478Z,101680.41
2022-10-08T00:19:02.470Z,101697.91
2022-10-08T00:21:32.764Z,101689.84
2022-10-08T00:24:02.390Z,101694.00
2022-10-08T00:26:32.512Z,101699.59
2022-10-08T00:29:03.246Z,101688.03
2022-10-08T00:31:33.583Z,101689.16
2022-10-08T00:34:05.966Z,101695.41
2022-10-08T00:36:36.549Z,101696.25
2022-10-08T00:39:07.313Z,101694.88
2022-10-08T00:41:38.363Z,101707.09
2022-10-08T00:44:39.691Z,101698.66
2022-10-08T00:47:16.483Z,101701.31
2022-10-08T00:49:47.069Z,101700.75
2022-10-08T00:52:15.529Z,101707.03
2022-10-08T00:54:43.645Z,101707.84
2022-10-08T00:57:12.344Z,101706.03
2022-10-08T00:59:40.555Z,101704.50
2022-10-08T01:02:10.190Z,101704.66
2022-10-08T01:04:39.864Z,101703.84
2022-10-08T01:07:19.199Z,101709.94
2022-10-08T01:09:52.703Z,101700.38
2022-10-08T01:12:29.325Z,101708.44
2022-10-08T01:15:00.521Z,101717.03
2022-10-08T01:17:39.685Z,101716.50
2022-10-08T01:20:30.264Z,101722.47
2022-10-08T01:23:22.741Z,101721.94
2022-10-08T01:25:57.447Z,101728.19
2022-10-08T01:28:33.376Z,101727.34
2022-10-08T01:31:09.842Z,101726.66
2022-10-08T01:33:46.669Z,101732.75
2022-10-08T01:36:18.729Z,101730.13
2022-10-08T01:38:55.460Z,101725.97
2022-10-08T01:41:29.571Z,101733.06
2022-10-08T01:44:06.208Z,101733.34
2022-10-08T01:46:37.941Z,101733.50
2022-10-08T01:49:11.430Z,101730.03
2022-10-08T01:51:44.973Z,101746.81
2022-10-08T01:54:16.636Z,101738.09
2022-10-08T01:56:47.544Z,101738.09
2022-10-08T01:59:20.473Z,101752.25
2022-10-08T02:01:56.571Z,101747.25
2022-10-08T02:04:35.369Z,101755.47
2022-10-08T02:07:08.355Z,101748.41
2022-10-08T02:09:40.814Z,101748.41
2022-10-08T02:12:10.330Z,101743.25
2022-10-08T02:14:44.671Z,101741.75
2022-10-08T02:17:24.710Z,101740.22
2022-10-08T02:19:58.027Z,101746.31
2022-10-08T02:22:32.542Z,101748.13
2022-10-08T02:25:06.976Z,101747.44
2022-10-08T02:27:46.296Z,101743.28
2022-10-08T02:30:16.928Z,101742.47
2022-10-08T02:32:51.370Z,101749.69
2022-10-08T02:35:25.536Z,101749.84
2022-10-08T02:37:59.096Z,101743.72
2022-10-08T02:40:30.584Z,101744.41
2022-10-08T02:43:01.272Z,101749.00
2022-10-08T02:45:35.791Z,101745.41
2022-10-08T02:48:08.473Z,101750.13
2022-10-08T02:50:41.389Z,101744.69
2022-10-08T02:53:14.687Z,101746.34
2022-10-08T02:55:50.864Z,101747.63
2022-10-08T02:58:19.587Z,101750.56
2022-10-08T03:00:53.102Z,101752.22
2022-10-08T03:03:26.866Z,101749.72
2022-10-08T03:05:57.006Z,101742.94
2022-10-08T03:08:25.437Z,101749.34
2022-10-08T03:10:54.574Z,101746.00
2022-10-08T03:13:24.836Z,101744.34
2022-10-08T03:15:55.831Z,101736.59
2022-10-08T03:18:25.696Z,101740.31
2022-10-08T03:20:56.289Z,101744.75
2022-10-08T03:23:25.548Z,101739.50
2022-10-08T03:25:53.668Z,101732.56
2022-10-08T03:28:21.856Z,101734.38
2022-10-08T03:30:50.118Z,101730.91
2022-10-08T03:33:19.813Z,101738.09
2022-10-08T03:35:48.444Z,101743.53
2022-10-08T03:38:17.565Z,101738.41
2022-10-08T03:40:55.208Z,101738.41
2022-10-08T03:43:23.996Z,101746.31
2022-10-08T03:45:53.221Z,101745.47
2022-10-08T03:48:23.889Z,101747.28
2022-10-08T03:50:53.984Z,101748.25
2022-10-08T03:53:22.785Z,101758.94
2022-10-08T03:55:51.236Z,101761.44
2022-10-08T03:58:20.225Z,101769.34
2022-10-08T04:00:58.273Z,101773.09
2022-10-08T04:03:28.564Z,101775.84
2022-10-08T04:05:56.819Z,101777.09
2022-10-08T04:08:25.404Z,101773.38
2022-10-08T04:10:53.871Z,101780.44
2022-10-08T04:13:22.532Z,101783.34
2022-10-08T04:15:51.680Z,101778.91
2022-10-08T04:18:20.116Z,101785.88
2022-10-08T04:20:49.517Z,101787.78
2022-10-08T04:23:17.730Z,101785.00
2022-10-08T04:25:51.028Z,101789.59
2022-10-08T04:28:19.633Z,101789.75
2022-10-08T04:30:56.515Z,101789.59
2022-10-08T04:33:24.802Z,101798.47
2022-10-08T04:35:59.938Z,101795.84
2022-10-08T04:38:28.660Z,101796.81
2022-10-08T04:41:05.176Z,101802.09
2022-10-08T04:43:33.700Z,101797.09
2022-10-08T04:46:02.059Z,101801.66
2022-10-08T04:48:30.662Z,101802.63
2022-10-08T04:51:04.072Z,101805.16
2022-10-08T04:53:34.693Z,101806.91
2022-10-08T04:56:11.302Z,101815.81
2022-10-08T04:58:40.274Z,101815.94
2022-10-08T05:01:10.986Z,101828.28
2022-10-08T05:03:39.880Z,101831.03
2022-10-08T05:06:10.293Z,101838.94
2022-10-08T05:08:39.100Z,101832.03
2022-10-08T05:11:07.830Z,101830.22
2022-10-08T05:13:36.461Z,101829.50
2022-10-08T05:16:05.961Z,101825.22
2022-10-08T05:18:34.735Z,101831.31
2022-10-08T05:21:07.209Z,101826.88
2022-10-08T05:23:37.480Z,101819.81
2022-10-08T05:26:13.344Z,101823.28
2022-10-08T05:28:41.620Z,101827.69
2022-10-08T05:31:09.887Z,101822.59
2022-10-08T05:33:38.147Z,101827.13
2022-10-08T05:36:08.109Z,101823.69
2022-10-08T05:38:37.742Z,101828.13
2022-10-08T05:41:10.564Z,101823.81
2022-10-08T05:43:38.808Z,101826.47
2022-10-08T05:46:07.343Z,101828.38
2022-10-08T05:48:36.006Z,101817.84
2022-10-08T05:51:07.866Z,101815.94
2022-10-08T05:53:38.756Z,101815.22
2022-10-08T05:56:08.760Z,101813.44
2022-10-08T05:58:39.655Z,101818.56
2022-10-08T06:01:09.226Z,101829.09
2022-10-08T06:03:37.380Z,101826.59
2022-10-08T06:06:07.448Z,101821.34
2022-10-08T06:08:37.850Z,101826.59
2022-10-08T06:11:07.130Z,101828.38
2022-10-08T06:13:35.674Z,101824.81
2022-10-08T06:16:05.942Z,101827.28
2022-10-08T06:18:37.147Z,101823.56
2022-10-08T06:21:07.332Z,101826.03
2022-10-08T06:23:37.771Z,101835.59
2022-10-08T06:26:07.565Z,101829.38
2022-10-08T06:28:37.894Z,101828.28
2022-10-08T06:31:07.577Z,101836.19
2022-10-08T06:33:35.915Z,101843.13
2022-10-08T06:36:05.164Z,101841.31
2022-10-08T06:38:33.827Z,101848.25
2022-10-08T06:41:03.318Z,101850.06
2022-10-08T06:43:31.412Z,101847.28
2022-10-08T06:46:00.301Z,101855.06
2022-10-08T06:48:28.942Z,101857.53
2022-10-08T06:51:01.035Z,101854.91
2022-10-08T06:53:29.847Z,101866.97
2022-10-08T06:55:58.949Z,101868.78
2022-10-08T06:58:28.862Z,101877.53
2022-10-08T07:01:04.990Z,101872.25
2022-10-08T07:03:33.588Z,101882.78
2022-10-08T07:06:02.852Z,101881.97
2022-10-08T07:08:31.227Z,101887.34
2022-10-08T07:11:05.221Z,101886.53
2022-10-08T07:13:35.314Z,101891.94
2022-10-08T07:16:05.766Z,101884.28
2022-10-08T07:18:35.114Z,101889.84
2022-10-08T07:21:03.391Z,101881.25
2022-10-08T07:23:31.737Z,101891.63
2022-10-08T07:26:01.831Z,101891.78
2022-10-08T07:28:32.186Z,101895.13
2022-10-08T07:31:06.154Z,101901.91
2022-10-08T07:33:34.495Z,101906.09
2022-10-08T07:36:10.692Z,101905.09
2022-10-08T07:38:39.087Z,101906.63
2022-10-08T07:41:08.648Z,101918.00
2022-10-08T07:43:36.820Z,101920.25
2022-10-08T07:46:08.637Z,101919.13
2022-10-08T07:48:37.285Z,101919.13
2022-10-08T07:51:11.999Z,101933.94
2022-10-08T07:53:40.611Z,101930.22
2022-10-08T07:56:10.242Z,101938.53
2022-10-08T07:58:38.689Z,101931.06
2022-10-08T08:01:11.930Z,101926.19
2022-10-08T08:03:40.175Z,101932.03
2022-10-08T08:06:10.828Z,101933.13
2022-10-08T08:08:40.346Z,101947.56
2022-10-08T08:11:10.340Z,101941.88
2022-10-08T08:13:39.749Z,101939.66
2022-10-08T08:16:11.947Z,101944.63
2022-10-08T08:18:42.520Z,101947.81
2022-10-08T08:21:13.390Z,101945.75
2022-10-08T08:23:44.091Z,101939.22
2022-10-08T08:26:14.807Z,101945.88
2022-10-08T08:28:43.149Z,101941.28
2022-10-08T08:31:15.700Z,101941.84
2022-10-08T08:33:44.563Z,101941.41
2022-10-08T08:36:12.652Z,101940.16
2022-10-08T08:38:41.275Z,101944.16
2022-10-08T08:41:34.436Z,101940.25
2022-10-08T08:44:09.482Z,101944.28
2022-10-08T08:46:43.364Z,101944.00
2022-10-08T08:49:24.291Z,101951.63
2022-10-08T08:51:53.721Z,101948.84
2022-10-08T08:54:22.781Z,101949.53
2022-10-08T08:56:52.469Z,101953.41
2022-10-08T08:59:28.213Z,101956.44
2022-10-08T09:02:02.313Z,101951.84
2022-10-08T09:04:45.043Z,101957.53
2022-10-08T09:07:16.407Z,101951.97
2022-10-08T09:09:48.684Z,101951.38
2022-10-08T09:12:21.552Z,101964.16
2022-10-08T09:14:54.724Z,101964.69
2022-10-08T09:17:31.650Z,101966.06
2022-10-08T09:20:00.633Z,101970.09
2022-10-08T09:22:31.442Z,101969.66
2022-10-08T09:25:02.218Z,101974.50
2022-10-08T09:27:48.116Z,101962.66
2022-10-08T09:30:32.046Z,101961.41
2022-10-08T09:33:04.436Z,101967.63
2022-10-08T09:35:34.699Z,101971.47
2022-10-08T09:38:05.879Z,101967.41
2022-10-08T09:40:34.217Z,101976.41
2022-10-08T09:43:15.927Z,101978.59
2022-10-08T09:45:44.868Z,101979.00
2022-10-08T09:48:20.046Z,101984.38
2022-10-08T09:50:53.077Z,101991.84
2022-10-08T09:53:22.853Z,101992.06
2022-10-08T09:55:55.701Z,101996.63
2022-10-08T09:58:24.148Z,102001.13
2022-10-08T10:01:05.348Z,102004.69
2022-10-08T10:03:38.295Z,102004.09
2022-10-08T10:06:06.893Z,102004.31
2022-10-08T10:08:56.046Z,102016.47
2022-10-08T10:11:31.369Z,102014.91
2022-10-08T10:14:04.638Z,102014.44
2022-10-08T10:16:37.602Z,102025.25
2022-10-08T10:19:13.618Z,102025.31
2022-10-08T10:21:47.811Z,102035.81
2022-10-08T10:24:31.690Z,102042.84
2022-10-08T10:27:07.224Z,102037.44
2022-10-08T10:29:47.116Z,102035.34
2022-10-08T10:32:21.235Z,102035.09
2022-10-08T10:35:02.614Z,102034.81
2022-10-08T10:37:40.000Z,102045.28
2022-10-08T10:40:41.248Z,102049.47
2022-10-08T10:43:32.430Z,102049.84
2022-10-08T10:46:16.760Z,102058.50
2022-10-08T10:48:44.871Z,102058.25
2022-10-08T10:51:33.211Z,102064.09
2022-10-08T10:54:12.697Z,102065.25
2022-10-08T10:56:59.397Z,102062.13
2022-10-08T10:59:39.935Z,102071.59
2022-10-08T11:02:15.088Z,102071.31
2022-10-08T11:04:51.926Z,102064.66
2022-10-08T11:07:48.157Z,102067.66
2022-10-08T11:10:30.957Z,102071.66
2022-10-08T11:13:09.012Z,102067.16
2022-10-08T11:15:44.099Z,102066.16
2022-10-08T11:18:21.635Z,102068.47
2022-10-08T11:21:06.755Z,102064.00
2022-10-08T11:24:12.221Z,102062.81
2022-10-08T11:26:46.996Z,102067.28
2022-10-08T11:29:21.643Z,102070.25
2022-10-08T11:31:51.993Z,102076.06
2022-10-08T11:34:24.868Z,102075.56
2022-10-08T11:37:08.528Z,102076.50
2022-10-08T11:39:46.999Z,102081.81
2022-10-08T11:42:22.696Z,102080.97
2022-10-08T11:44:50.850Z,102089.38
2022-10-08T11:47:48.713Z,102090.34
2022-10-08T11:50:29.078Z,102091.69
2022-10-08T11:53:01.050Z,102097.84
2022-10-08T11:55:33.530Z,102098.69
2022-10-08T11:58:09.121Z,102102.47
2022-10-08T12:00:43.047Z,102115.25
2022-10-08T12:03:24.589Z,102122.72
2022-10-08T12:05:55.254Z,102129.88
2022-10-08T12:08:55.551Z,102133.72
2022-10-08T12:11:51.016Z,102137.53
2022-10-08T12:14:28.334Z,102146.81
2022-10-08T12:17:17.546Z,102149.94
2022-10-08T12:20:04.763Z,102153.78
2022-10-08T12:22:44.532Z,102165.09
2022-10-08T12:25:37.934Z,102163.75
2022-10-08T12:28:53.709Z,102168.41
2022-10-08T12:31:43.389Z,102168.22
2022-10-08T12:34:18.430Z,102169.72
2022-10-08T12:36:59.486Z,102183.72
2022-10-08T12:39:37.277Z,102182.69
2022-10-08T12:42:17.104Z,102185.66
2022-10-08T12:45:10.537Z,102187.97
2022-10-08T12:47:48.105Z,102187.44
2022-10-08T12:50:44.537Z,102197.28
2022-10-08T12:53:16.674Z,102198.09
2022-10-08T12:55:49.817Z,102187.44
2022-10-08T12:58:20.353Z,102193.75
2022-10-08T13:00:53.774Z,102188.28
2022-10-08T13:03:23.407Z,102185.78
2022-10-08T13:05:53.575Z,102190.94
2022-10-08T13:08:33.433Z,102182.25
2022-10-08T13:11:04.827Z,102184.25
2022-10-08T13:13:34.263Z,102181.59
2022-10-08T13:16:03.851Z,102177.25
2022-10-08T13:18:35.290Z,102172.94
2022-10-08T13:21:06.021Z,102176.63
2022-10-08T13:23:36.619Z,102179.47
2022-10-08T13:26:05.046Z,102177.44
2022-10-08T13:28:59.226Z,102176.44
2022-10-08T13:31:24.762Z,102172.13
2022-10-08T13:33:54.570Z,102172.31
2022-10-08T13:36:24.423Z,102170.69
2022-10-08T13:38:52.653Z,102165.69
2022-10-08T13:41:25.291Z,102173.88
2022-10-08T13:43:53.550Z,102167.03
2022-10-08T13:46:21.755Z,102166.41
2022-10-08T13:48:50.091Z,102169.41
2022-10-08T13:51:19.505Z,102170.41
2022-10-08T13:53:47.624Z,102163.59
2022-10-08T13:56:18.330Z,102170.72
2022-10-08T13:58:46.412Z,102168.75
2022-10-08T14:01:14.642Z,102166.41
2022-10-08T14:03:42.924Z,102165.09
2022-10-08T14:06:11.130Z,102165.59
2022-10-08T14:08:40.627Z,102162.47
2022-10-08T14:11:17.626Z,102163.81
2022-10-08T14:13:45.822Z,102149.38
2022-10-08T14:16:14.700Z,102153.53
2022-10-08T14:18:42.936Z,102150.41
2022-10-08T14:21:13.703Z,102146.06
2022-10-08T14:23:43.536Z,102150.25
2022-10-08T14:26:12.508Z,102146.25
2022-10-08T14:28:40.797Z,102143.28
2022-10-08T14:31:09.204Z,102140.63
2022-10-08T14:33:37.284Z,102138.16
2022-10-08T14:36:07.451Z,102135.03
2022-10-08T14:38:36.223Z,102133.22
2022-10-08T14:41:06.000Z,102124.44
2022-10-08T14:43:34.087Z,102125.09
2022-10-08T14:46:02.413Z,102123.13
2022-10-08T14:48:30.586Z,102122.81
2022-10-08T14:50:59.138Z,102117.47
2022-10-08T14:53:27.593Z,102113.47
2022-10-08T14:56:11.413Z,102113.16
2022-10-08T14:58:42.834Z,102109.16
2022-10-08T15:01:11.296Z,102106.81
2022-10-08T15:03:39.438Z,102097.88
2022-10-08T15:06:08.404Z,102092.56
2022-10-08T15:08:36.586Z,102100.84
2022-10-08T15:11:05.338Z,102099.03
2022-10-08T15:13:33.758Z,102095.53
2022-10-08T15:16:04.163Z,102087.91
2022-10-08T15:18:33.100Z,102092.53
2022-10-08T15:21:02.129Z,102084.75
2022-10-08T15:23:30.532Z,102081.28
2022-10-08T15:25:59.789Z,102083.44
2022-10-08T15:28:29.067Z,102072.97
2022-10-08T15:31:12.765Z,102067.66
2022-10-08T15:33:42.115Z,102061.69
2022-10-08T15:36:21.631Z,102057.69
2022-10-08T15:38:55.685Z,102049.91
2022-10-08T15:41:24.330Z,102047.56
2022-10-08T15:43:52.920Z,102040.09
2022-10-08T15:46:26.232Z,102032.31
2022-10-08T15:48:56.181Z,102026.19
2022-10-08T15:51:25.346Z,102024.84
2022-10-08T15:53:53.563Z,102023.34
2022-10-08T15:56:21.670Z,102029.66
2022-10-08T15:58:51.253Z,102028.16
2022-10-08T16:01:24.062Z,102025.84
2022-10-08T16:03:54.185Z,102021.53
2022-10-08T16:06:24.416Z,102016.53
2022-10-08T16:08:53.084Z,102012.06
2022-10-08T16:11:23.365Z,102028.16
2022-10-08T16:13:54.723Z,102009.06
2022-10-08T16:16:24.566Z,102012.72
2022-10-08T16:18:57.331Z,102009.91
2022-10-08T16:21:26.128Z,102006.41
2022-10-08T16:23:54.584Z,102007.59
2022-10-08T16:26:23.082Z,102008.56
2022-10-08T16:28:55.180Z,101995.47
2022-10-08T16:31:26.104Z,102005.44
2022-10-08T16:33:57.186Z,101998.44
2022-10-08T16:36:26.931Z,101993.00
2022-10-08T16:38:55.540Z,101994.00
2022-10-08T16:41:25.728Z,101994.31
2022-10-08T16:43:55.616Z,101991.31
2022-10-08T16:46:27.882Z,101992.31
2022-10-08T16:48:58.067Z,101983.16
2022-10-08T16:51:28.045Z,101982.69
2022-10-08T16:53:57.775Z,101970.19
2022-10-08T16:56:27.610Z,101964.91
2022-10-08T16:58:58.170Z,101970.69
2022-10-08T17:01:28.893Z,101965.03
2022-10-08T17:03:57.498Z,101967.03
2022-10-08T17:06:27.803Z,101964.72
2022-10-08T17:08:56.438Z,101955.41
2022-10-08T17:11:24.682Z,101954.06
2022-10-08T17:13:54.438Z,101949.94
2022-10-08T17:16:24.878Z,101949.59
2022-10-08T17:18:56.425Z,101952.72
2022-10-08T17:21:24.338Z,101948.75
2022-10-08T17:23:52.770Z,101946.56
2022-10-08T17:26:22.900Z,101952.34
2022-10-08T17:28:52.637Z,101936.94
2022-10-08T17:31:22.751Z,101944.53
2022-10-08T17:33:51.266Z,101943.34
2022-10-08T17:36:22.865Z,101934.91
2022-10-08T17:38:52.810Z,101931.91
2022-10-08T17:41:22.617Z,101938.63
2022-10-08T17:43:51.506Z,101939.63
2022-10-08T17:46:21.562Z,101935.34
2022-10-08T17:48:50.221Z,101941.75
2022-10-08T17:51:21.797Z,101945.06
2022-10-08T17:53:53.610Z,101947.88
2022-10-08T17:56:22.890Z,101944.38
2022-10-08T17:58:51.150Z,101952.47
2022-10-08T18:01:21.204Z,101942.03
2022-10-08T18:03:53.531Z,101937.75
2022-10-08T18:06:25.714Z,101938.88
2022-10-08T18:08:55.911Z,101935.56
2022-10-08T18:11:24.421Z,101934.22
2022-10-08T18:13:52.744Z,101945.13
2022-10-08T18:16:21.988Z,101936.81
2022-10-08T18:18:50.428Z,101933.81
2022-10-08T18:21:20.772Z,101936.91
2022-10-08T18:23:50.346Z,101925.66
2022-10-08T18:26:22.478Z,101930.13
2022-10-08T18:28:53.160Z,101924.69
2022-10-08T18:31:22.745Z,101926.50
2022-10-08T18:33:53.363Z,101916.56
2022-10-08T18:36:23.943Z,101920.91
2022-10-08T18:38:58.992Z,101913.47
2022-10-08T18:41:28.962Z,101903.03
2022-10-08T18:43:59.213Z,101898.88
2022-10-08T18:46:28.197Z,101894.06
2022-10-08T18:48:57.179Z,101898.66
2022-10-08T18:51:29.078Z,101900.78
2022-10-08T18:54:02.143Z,101896.78
2022-10-08T18:56:34.447Z,101898.91
2022-10-08T18:59:05.076Z,101901.03
2022-10-08T19:01:35.533Z,101895.69
2022-10-08T19:04:06.760Z,101902.97
2022-10-08T19:06:37.101Z,101901.44
2022-10-08T19:09:08.239Z,101892.84
2022-10-08T19:11:44.228Z,101899.25
2022-10-08T19:14:14.870Z,101894.44
2022-10-08T19:16:43.142Z,101906.16
2022-10-08T19:19:15.333Z,101898.38
2022-10-08T19:21:43.994Z,101903.97
2022-10-08T19:24:15.768Z,101902.63
2022-10-08T19:26:44.557Z,101898.63
2022-10-08T19:29:15.931Z,101895.16
2022-10-08T19:31:47.884Z,101898.91
2022-10-08T19:34:18.342Z,101892.97
2022-10-08T19:36:46.501Z,101899.38
2022-10-08T19:39:18.814Z,101897.72
2022-10-08T19:41:47.938Z,101897.88
2022-10-08T19:44:17.348Z,101890.41
2022-10-08T19:46:45.719Z,101879.28
2022-10-08T19:49:14.171Z,101879.59
2022-10-08T19:51:42.524Z,101873.63
2022-10-08T19:54:10.780Z,101877.28
2022-10-08T19:56:40.397Z,101873.94
2022-10-08T19:59:08.666Z,101867.00
2022-10-08T20:01:39.336Z,101877.84
2022-10-08T20:04:08.802Z,101880.00
2022-10-08T20:06:40.006Z,101865.09
2022-10-08T20:09:12.030Z,101871.69
2022-10-08T20:11:42.618Z,101875.00
2022-10-08T20:14:11.554Z,101876.16
2022-10-08T20:16:41.741Z,101868.22
2022-10-08T20:19:16.735Z,101879.75
2022-10-08T20:21:45.514Z,101869.03
2022-10-08T20:24:13.937Z,101875.28
2022-10-08T20:26:45.628Z,101870.00
2022-10-08T20:29:16.420Z,101855.00
2022-10-08T20:31:46.784Z,101865.56
2022-10-08T20:34:17.775Z,101853.31
2022-10-08T20:36:46.929Z,101861.25
2022-10-08T20:39:16.880Z,101860.41
2022-10-08T20:41:46.619Z,101865.56
2022-10-08T20:44:15.200Z,101870.53
2022-10-08T20:46:43.785Z,101863.31
2022-10-08T20:49:12.933Z,101863.00
2022-10-08T20:51:42.269Z,101860.34
2022-10-08T20:54:12.675Z,101858.41
2022-10-08T20:56:41.857Z,101854.47
2022-10-08T20:59:15.672Z,101848.84
2022-10-08T21:01:44.091Z,101844.94
2022-10-08T21:04:12.407Z,101833.06
2022-10-08T21:06:42.819Z,101833.72
2022-10-08T21:09:11.940Z,101828.16
2022-10-08T21:11:40.990Z,101827.84
2022-10-08T21:14:11.299Z,101827.53
2022-10-08T21:16:41.134Z,101822.75
2022-10-08T21:19:13.071Z,101814.66
2022-10-08T21:21:41.903Z,101813.69
2022-10-08T21:24:10.236Z,101817.16
2022-10-08T21:26:40.380Z,101807.88
2022-10-08T21:29:12.630Z,101820.28
2022-10-08T21:31:42.345Z,101811.34
2022-10-08T21:34:12.207Z,101809.53
2022-10-08T21:36:42.375Z,101807.06
2022-10-08T21:39:15.597Z,101802.06
2022-10-08T21:41:44.071Z,101803.34
2022-10-08T21:44:14.489Z,101796.25
2022-10-08T21:46:43.965Z,101794.44
2022-10-08T21:49:20.588Z,101785.69
2022-10-08T21:51:48.826Z,101787.50
2022-10-08T21:54:18.690Z,101773.28
2022-10-08T21:56:47.017Z,101775.94
2022-10-08T21:59:17.415Z,101774.44
2022-10-08T22:01:47.406Z,101773.44
2022-10-08T22:04:17.225Z,101771.63
2022-10-08T22:06:47.353Z,101769.69
2022-10-08T22:09:18.507Z,101767.91
2022-10-08T22:11:46.800Z,101769.72
2022-10-08T22:14:17.022Z,101758.00
2022-10-08T22:16:45.556Z,101758.00
2022-10-08T22:19:13.855Z,101757.00
2022-10-08T22:21:42.286Z,101752.88
2022-10-08T22:24:11.113Z,101747.72
2022-10-08T22:26:41.637Z,101741.78
2022-10-08T22:29:10.656Z,101747.38
2022-10-08T22:31:40.760Z,101739.59
2022-10-08T22:34:09.083Z,101738.59
2022-10-08T22:36:40.740Z,101739.91
2022-10-08T22:39:09.673Z,101729.31
2022-10-08T22:41:38.171Z,101727.97
2022-10-08T22:44:06.710Z,101722.97
2022-10-08T22:46:37.789Z,101716.31
2022-10-08T22:49:08.993Z,101710.38
2022-10-08T22:51:37.836Z,101702.59
2022-10-08T22:54:06.070Z,101698.28
2022-10-08T22:56:34.561Z,101693.19
2022-10-08T22:59:02.835Z,101686.38
2022-10-08T23:01:31.907Z,101682.75
2022-10-08T23:04:00.422Z,101673.69
2022-10-08T23:06:32.657Z,101666.41
2022-10-08T23:09:02.539Z,101658.47
2022-10-08T23:11:31.733Z,101660.16
2022-10-08T23:14:01.508Z,101654.72
2022-10-08T23:16:32.395Z,101647.44
2022-10-08T23:19:02.412Z,101639.38
2022-10-08T23:21:32.469Z,101633.75
2022-10-08T23:24:00.857Z,101626.50
2022-10-08T23:26:29.953Z,101616.75
2022-10-08T23:28:59.785Z,101608.31
2022-10-08T23:31:30.367Z,101607.78
2022-10-08T23:33:59.038Z,101603.84
2022-10-08T23:36:29.753Z,101598.03
2022-10-08T23:38:59.756Z,101587.78
2022-10-08T23:41:28.696Z,101581.00
2022-10-08T23:43:58.404Z,101578.50
2022-10-08T23:46:28.629Z,101575.56
2022-10-08T23:48:57.804Z,101564.16
2022-10-08T23:51:28.202Z,101554.72
2022-10-08T23:53:56.570Z,101556.53
2022-10-08T23:56:26.312Z,101550.72
2022-10-08T23:58:54.511Z,101547.25
